Time;durP1;ratioP1;P1;durP2;ratioP2;P2;SDS_P1;SDS_P2;PMS_P1;PMS_P2;Temp;Humidity;BMP_temperature;BMP_pressure;BME280_temperature;BME280_humidity;BME280_pressure;Samples;Min_cycle;Max_cycle;Signal;HPM_P1;HPM_P2
2023/01/09 00:01:39;;;;;;;8.10;5.27;;;8.70;99.90;;;;;;5040074;28;20443;-72
2023/01/09 00:04:06;;;;;;;6.33;5.67;;;8.80;99.90;;;;;;5032349;28;21156;-72
2023/01/09 00:06:32;;;;;;;9.83;5.47;;;8.80;99.90;;;;;;5045832;28;20441;-73
2023/01/09 00:08:58;;;;;;;6.17;5.43;;;8.80;99.90;;;;;;5050960;28;20488;-72
2023/01/09 00:11:23;;;;;;;6.60;5.90;;;8.80;99.90;;;;;;5033396;28;20270;-72
2023/01/09 00:13:49;;;;;;;7.33;5.63;;;8.80;99.90;;;;;;5044715;28;20251;-73
2023/01/09 00:16:15;;;;;;;6.83;5.20;;;8.80;99.90;;;;;;5038538;28;20268;-71
2023/01/09 00:18:41;;;;;;;5.77;5.17;;;8.80;99.90;;;;;;5039599;28;20295;-72
2023/01/09 00:21:08;;;;;;;7.67;5.70;;;8.80;99.90;;;;;;5045717;28;20541;-71
2023/01/09 00:23:35;;;;;;;12.90;6.00;;;8.80;99.90;;;;;;5047443;28;20717;-71
2023/01/09 00:26:06;;;;;;;6.13;4.93;;;8.90;99.90;;;;;;5047914;28;20487;-70
2023/01/09 00:28:32;;;;;;;5.87;4.40;;;8.90;99.90;;;;;;5031866;28;20541;-72
2023/01/09 00:31:00;;;;;;;5.37;4.50;;;8.90;99.90;;;;;;5032083;28;20455;-71
2023/01/09 00:33:49;;;;;;;7.90;5.10;;;9.00;99.90;;;;;;5043695;28;20450;-72
2023/01/09 00:36:15;;;;;;;6.63;4.67;;;9.00;99.90;;;;;;5044467;28;20450;-72
2023/01/09 00:38:40;;;;;;;6.87;4.83;;;9.00;99.90;;;;;;5045845;28;20529;-72
2023/01/09 00:41:10;;;;;;;5.40;4.37;;;9.00;99.90;;;;;;5046898;28;20277;-72
2023/01/09 00:43:47;;;;;;;8.10;5.17;;;9.00;99.90;;;;;;5044489;28;20278;-73
2023/01/09 00:46:15;;;;;;;5.20;4.67;;;9.00;99.90;;;;;;5030757;28;20451;-72
2023/01/09 00:48:43;;;;;;;5.67;5.07;;;9.00;99.90;;;;;;5043355;28;21044;-72
2023/01/09 00:51:09;;;;;;;4.83;4.20;;;9.10;99.90;;;;;;5067907;28;20545;-72
2023/01/09 00:53:38;;;;;;;5.37;4.30;;;9.00;99.90;;;;;;5057566;28;20526;-73
2023/01/09 00:56:09;;;;;;;5.57;4.27;;;8.90;99.90;;;;;;5046328;28;20238;-72
2023/01/09 00:58:35;;;;;;;6.40;4.93;;;8.80;99.90;;;;;;5025801;28;20490;-73
2023/01/09 01:01:01;;;;;;;5.37;4.00;;;8.90;99.90;;;;;;5054511;28;20520;-72
2023/01/09 01:03:26;;;;;;;4.63;2.77;;;8.90;99.90;;;;;;5058354;28;20477;-72
2023/01/09 01:08:37;;;;;;;2.80;1.90;;;8.80;99.90;;;;;;5052706;28;20641;-72
2023/01/09 01:11:08;;;;;;;2.00;1.90;;;8.80;99.90;;;;;;5054711;28;20510;-72
2023/01/09 01:13:33;;;;;;;2.10;1.90;;;8.90;99.90;;;;;;5057599;28;20494;-72
2023/01/09 01:15:59;;;;;;;1.60;1.50;;;8.90;99.90;;;;;;5060120;28;20547;-72
2023/01/09 01:18:25;;;;;;;2.07;1.90;;;8.90;99.90;;;;;;5031586;28;20229;-72
2023/01/09 01:20:50;;;;;;;1.80;1.70;;;8.90;99.90;;;;;;5045539;28;20227;-72
2023/01/09 01:23:16;;;;;;;1.80;1.70;;;8.90;99.90;;;;;;5040264;28;20227;-72
2023/01/09 01:25:42;;;;;;;1.47;1.37;;;8.80;99.90;;;;;;5070591;28;20219;-72
2023/01/09 01:28:09;;;;;;;1.07;1.00;;;8.70;99.90;;;;;;5049278;28;20462;-73
2023/01/09 01:30:39;;;;;;;1.10;1.10;;;8.70;99.90;;;;;;5062050;28;20223;-72
2023/01/09 01:33:06;;;;;;;0.70;0.70;;;8.60;99.90;;;;;;5066730;28;20485;-73
2023/01/09 01:35:32;;;;;;;1.23;0.90;;;8.50;99.90;;;;;;5055635;28;20451;-72
2023/01/09 01:37:57;;;;;;;0.83;0.77;;;8.50;99.90;;;;;;5050106;28;20563;-72
2023/01/09 01:40:23;;;;;;;0.63;0.60;;;8.50;99.90;;;;;;5061850;28;20223;-72
2023/01/09 01:42:51;;;;;;;0.40;0.40;;;8.40;99.90;;;;;;5049432;28;20234;-73
2023/01/09 01:45:28;;;;;;;0.40;0.40;;;8.40;99.90;;;;;;5060056;28;20259;-73
2023/01/09 01:48:03;;;;;;;0.57;0.57;;;8.30;99.90;;;;;;5048161;28;20485;-72
2023/01/09 01:50:44;;;;;;;2.17;0.67;;;8.30;99.90;;;;;;5047620;28;20468;-72
2023/01/09 01:53:25;;;;;;;1.53;0.57;;;8.30;99.90;;;;;;5080915;28;20444;-72
2023/01/09 01:56:08;;;;;;;1.00;0.50;;;8.20;99.90;;;;;;5054394;28;20973;-72
2023/01/09 01:58:41;;;;;;;0.80;0.80;;;8.10;99.90;;;;;;5064018;28;20473;-72
2023/01/09 02:01:08;;;;;;;0.50;0.50;;;8.10;99.90;;;;;;5020164;28;20459;-72
2023/01/09 02:03:35;;;;;;;0.60;0.60;;;8.00;99.90;;;;;;5038767;28;20594;-73
2023/01/09 02:06:03;;;;;;;0.40;0.40;;;8.00;99.90;;;;;;5060316;28;20449;-72
2023/01/09 02:08:29;;;;;;;0.70;0.50;;;8.00;99.90;;;;;;5060511;28;20465;-71
2023/01/09 02:10:55;;;;;;;0.60;0.50;;;7.90;99.90;;;;;;5023898;28;20483;-72
2023/01/09 02:13:22;;;;;;;0.60;0.50;;;7.90;99.90;;;;;;5045831;28;20461;-73
2023/01/09 02:16:09;;;;;;;0.57;0.57;;;7.90;99.90;;;;;;5039794;28;20539;-73
2023/01/09 02:18:42;;;;;;;0.40;0.40;;;7.90;99.90;;;;;;5052550;28;20914;-72
2023/01/09 02:21:39;;;;;;;0.50;0.50;;;7.90;99.90;;;;;;5050033;28;20475;-71
2023/01/09 02:24:27;;;;;;;0.40;0.37;;;7.90;99.90;;;;;;5049616;28;20442;-72
2023/01/09 02:27:13;;;;;;;0.50;0.40;;;7.90;99.90;;;;;;5046218;28;20471;-72
2023/01/09 02:29:45;;;;;;;0.77;0.40;;;7.80;99.90;;;;;;5045467;28;20557;-73
2023/01/09 02:32:51;;;;;;;0.40;0.40;;;7.70;99.90;;;;;;5056039;28;20435;-72
2023/01/09 02:35:41;;;;;;;1.00;0.50;;;7.70;99.90;;;;;;4975158;28;20539;-72
2023/01/09 02:38:44;;;;;;;0.40;0.30;;;7.70;99.90;;;;;;5014294;28;21025;-72
2023/01/09 02:41:35;;;;;;;0.30;0.30;;;7.60;99.90;;;;;;4984883;28;20481;-72
2023/01/09 02:44:11;;;;;;;0.60;0.60;;;7.60;99.90;;;;;;5053449;28;20453;-72
2023/01/09 02:46:37;;;;;;;0.30;0.30;;;7.60;99.90;;;;;;5036586;28;20459;-72
2023/01/09 02:49:03;;;;;;;0.60;0.60;;;7.60;99.90;;;;;;5024850;28;20520;-72
2023/01/09 02:51:29;;;;;;;0.47;0.40;;;7.60;99.90;;;;;;5053140;28;20576;-72
2023/01/09 02:54:09;;;;;;;0.40;0.30;;;7.60;99.90;;;;;;5039878;28;20457;-72
2023/01/09 02:56:55;;;;;;;0.40;0.30;;;7.60;99.90;;;;;;5053273;28;20274;-72
2023/01/09 02:59:34;;;;;;;0.47;0.40;;;7.50;99.90;;;;;;5070570;28;20471;-72
2023/01/09 03:02:00;;;;;;;0.40;0.40;;;7.60;99.90;;;;;;5067917;28;20458;-72
2023/01/09 03:04:52;;;;;;;0.40;0.40;;;7.60;99.90;;;;;;5058314;28;20556;-72
2023/01/09 03:08:12;;;;;;;0.30;0.30;;;7.50;99.90;;;;;;5040548;28;20304;-72
2023/01/09 03:10:45;;;;;;;0.40;0.30;;;7.60;99.90;;;;;;5020680;28;20454;-72
2023/01/09 03:13:15;;;;;;;0.40;0.30;;;7.50;99.90;;;;;;5054876;28;20448;-72
2023/01/09 03:15:45;;;;;;;0.40;0.30;;;7.50;99.90;;;;;;5060056;28;20454;-72
2023/01/09 03:18:12;;;;;;;0.40;0.30;;;7.50;99.90;;;;;;5051384;28;20512;-72
2023/01/09 03:20:39;;;;;;;0.50;0.50;;;7.40;99.90;;;;;;5040109;28;20823;-72
2023/01/09 03:23:06;;;;;;;0.30;0.20;;;7.40;99.90;;;;;;5057465;28;20470;-73
2023/01/09 03:25:33;;;;;;;0.50;0.30;;;7.40;99.90;;;;;;5053942;28;20521;-72
2023/01/09 03:28:01;;;;;;;0.40;0.30;;;7.40;99.90;;;;;;5034990;28;20453;-73
2023/01/09 03:30:28;;;;;;;0.30;0.27;;;7.40;99.90;;;;;;5054117;28;20538;-72
2023/01/09 03:32:55;;;;;;;0.40;0.30;;;7.40;99.90;;;;;;5059979;28;20458;-72
2023/01/09 03:35:22;;;;;;;0.30;0.30;;;7.40;99.90;;;;;;5056471;28;20529;-72
2023/01/09 03:37:47;;;;;;;0.50;0.40;;;7.40;99.90;;;;;;5054379;28;20481;-72
2023/01/09 03:40:13;;;;;;;0.40;0.30;;;7.40;99.90;;;;;;5046789;28;20465;-73
2023/01/09 03:42:39;;;;;;;0.40;0.30;;;7.40;99.90;;;;;;5054701;28;20220;-72
2023/01/09 03:45:06;;;;;;;0.30;0.30;;;7.40;99.90;;;;;;5042687;28;20688;-73
2023/01/09 03:47:32;;;;;;;0.53;0.33;;;7.40;99.90;;;;;;5034622;28;20327;-72
2023/01/09 03:49:57;;;;;;;0.40;0.30;;;7.40;99.90;;;;;;5048316;28;20552;-72
2023/01/09 03:52:23;;;;;;;0.40;0.40;;;7.40;99.90;;;;;;5060474;28;20227;-72
2023/01/09 03:54:49;;;;;;;0.40;0.30;;;7.40;99.90;;;;;;5086770;28;20257;-73
2023/01/09 03:57:14;;;;;;;0.30;0.30;;;7.40;99.90;;;;;;5054782;28;20230;-72
2023/01/09 03:59:40;;;;;;;0.40;0.30;;;7.40;99.90;;;;;;5046000;28;20325;-72
2023/01/09 04:02:06;;;;;;;0.40;0.30;;;7.40;99.90;;;;;;5060714;28;20244;-73
2023/01/09 04:04:32;;;;;;;0.67;0.40;;;7.40;99.90;;;;;;5040291;28;20771;-72
2023/01/09 04:06:57;;;;;;;0.53;0.30;;;7.50;99.90;;;;;;5055429;28;20534;-72
2023/01/09 04:09:23;;;;;;;0.57;0.50;;;7.50;99.90;;;;;;5037272;28;20228;-72
2023/01/09 04:11:49;;;;;;;0.40;0.40;;;7.40;99.90;;;;;;5060652;28;20219;-72
2023/01/09 04:14:15;;;;;;;0.40;0.40;;;7.40;99.90;;;;;;5065519;28;20220;-72
2023/01/09 04:16:41;;;;;;;0.93;0.60;;;7.40;99.90;;;;;;5037694;28;20247;-72
2023/01/09 04:19:06;;;;;;;0.40;0.37;;;7.40;99.90;;;;;;5043673;28;20443;-72
2023/01/09 04:21:32;;;;;;;0.40;0.37;;;7.40;99.90;;;;;;5078426;28;20972;-72
2023/01/09 04:23:58;;;;;;;0.40;0.33;;;7.40;99.90;;;;;;5060526;28;20302;-72
2023/01/09 04:26:24;;;;;;;1.17;0.50;;;7.40;99.90;;;;;;5060483;28;20260;-73
2023/01/09 04:28:49;;;;;;;0.40;0.40;;;7.30;99.90;;;;;;5076964;28;20691;-71
2023/01/09 04:31:15;;;;;;;0.50;0.40;;;7.30;99.90;;;;;;5064644;28;20220;-72
2023/01/09 04:33:41;;;;;;;0.40;0.40;;;7.30;99.90;;;;;;5049690;28;20270;-72
2023/01/09 04:36:07;;;;;;;0.40;0.30;;;7.30;99.90;;;;;;5039718;28;20988;-72
2023/01/09 04:38:33;;;;;;;2.60;0.60;;;7.30;99.90;;;;;;5033741;28;20288;-71
2023/01/09 04:40:58;;;;;;;0.53;0.40;;;7.30;99.90;;;;;;5048930;28;20467;-72
2023/01/09 04:43:24;;;;;;;0.40;0.40;;;7.30;99.90;;;;;;5055853;28;20216;-72
2023/01/09 04:45:50;;;;;;;0.70;0.40;;;7.30;99.90;;;;;;5033735;28;20316;-73
2023/01/09 04:48:16;;;;;;;0.40;0.30;;;7.30;99.90;;;;;;5053302;28;20541;-72
2023/01/09 04:50:42;;;;;;;0.40;0.40;;;7.30;99.90;;;;;;5046870;28;20235;-72
2023/01/09 04:53:08;;;;;;;0.40;0.33;;;7.20;99.90;;;;;;5057926;28;20508;-72
2023/01/09 04:55:34;;;;;;;0.40;0.40;;;7.20;99.90;;;;;;5057250;28;20236;-72
2023/01/09 04:57:59;;;;;;;0.37;0.30;;;7.20;99.90;;;;;;5076064;28;21052;-72
2023/01/09 05:00:25;;;;;;;0.67;0.57;;;7.10;99.90;;;;;;5039920;28;20216;-72
2023/01/09 05:02:51;;;;;;;1.37;0.60;;;7.10;99.90;;;;;;5044743;28;20215;-72
2023/01/09 05:05:16;;;;;;;1.03;1.00;;;7.00;99.90;;;;;;5061363;28;20222;-72
2023/01/09 05:07:42;;;;;;;0.50;0.50;;;7.00;99.90;;;;;;5060590;28;20219;-72
2023/01/09 05:10:09;;;;;;;0.67;0.67;;;6.90;99.90;;;;;;5050502;28;20227;-72
2023/01/09 05:12:35;;;;;;;0.87;0.60;;;6.90;99.90;;;;;;5055748;28;20244;-71
2023/01/09 05:15:05;;;;;;;0.73;0.73;;;6.90;99.90;;;;;;5034472;28;20449;-71
2023/01/09 05:17:31;;;;;;;1.13;0.70;;;6.90;99.90;;;;;;5041583;28;20232;-70
2023/01/09 05:19:57;;;;;;;0.80;0.60;;;6.90;99.90;;;;;;5060750;28;20994;-71
2023/01/09 05:22:22;;;;;;;0.40;0.40;;;6.90;99.90;;;;;;5054953;28;20310;-72
2023/01/09 05:24:48;;;;;;;2.67;0.70;;;6.90;99.90;;;;;;5060287;28;20211;-72
2023/01/09 05:27:14;;;;;;;1.20;0.83;;;6.90;99.90;;;;;;5059511;28;20222;-72
2023/01/09 05:29:39;;;;;;;0.60;0.40;;;7.00;99.90;;;;;;5053270;28;20227;-72
2023/01/09 05:32:05;;;;;;;0.97;0.87;;;6.90;99.90;;;;;;5068453;28;20369;-72
2023/01/09 05:34:31;;;;;;;0.83;0.60;;;6.80;99.90;;;;;;5050974;28;20258;-71
2023/01/09 05:36:56;;;;;;;0.60;0.60;;;6.80;99.90;;;;;;5039296;28;20242;-72
2023/01/09 05:39:22;;;;;;;0.77;0.67;;;6.70;99.90;;;;;;5048615;28;20220;-72
2023/01/09 05:41:48;;;;;;;1.03;0.67;;;6.70;99.90;;;;;;5041265;28;20217;-72
2023/01/09 05:44:13;;;;;;;0.47;0.47;;;6.60;99.90;;;;;;5052492;28;20295;-72
2023/01/09 05:46:39;;;;;;;0.60;0.60;;;6.60;99.90;;;;;;5032300;28;20219;-72
2023/01/09 05:49:05;;;;;;;0.50;0.50;;;6.50;99.90;;;;;;5047475;28;20354;-73
2023/01/09 05:51:30;;;;;;;0.77;0.77;;;6.50;99.90;;;;;;5033363;28;20254;-71
2023/01/09 05:53:57;;;;;;;1.37;0.70;;;6.50;99.90;;;;;;5049522;28;20223;-71
2023/01/09 05:56:23;;;;;;;0.67;0.60;;;6.40;99.90;;;;;;5019586;28;20244;-71
2023/01/09 05:58:49;;;;;;;3.73;0.90;;;6.40;99.90;;;;;;5048872;28;20501;-72
2023/01/09 06:01:15;;;;;;;1.20;0.77;;;6.40;99.90;;;;;;5051561;28;20462;-71
2023/01/09 06:03:40;;;;;;;4.47;0.67;;;6.50;99.90;;;;;;5039912;28;20219;-71
2023/01/09 06:06:06;;;;;;;1.27;0.60;;;6.40;99.90;;;;;;5057964;28;20235;-71
2023/01/09 06:08:32;;;;;;;0.60;0.60;;;6.40;99.90;;;;;;5056720;28;20450;-72
2023/01/09 06:10:58;;;;;;;1.93;1.00;;;6.50;99.90;;;;;;5051550;28;20455;-72
2023/01/09 06:13:24;;;;;;;0.97;0.73;;;6.40;99.90;;;;;;5035341;28;20342;-72
2023/01/09 06:15:49;;;;;;;2.07;0.97;;;6.40;99.90;;;;;;5048584;28;20223;-72
2023/01/09 06:18:15;;;;;;;0.60;0.60;;;6.30;99.90;;;;;;5042479;28;20255;-72
2023/01/09 06:20:42;;;;;;;4.23;0.90;;;6.30;99.90;;;;;;5058851;28;20268;-72
2023/01/09 06:23:08;;;;;;;5.00;1.30;;;6.40;99.90;;;;;;5021763;28;20222;-72
2023/01/09 06:25:34;;;;;;;6.40;1.00;;;6.40;99.90;;;;;;5052407;28;20454;-71
2023/01/09 06:27:59;;;;;;;0.97;0.97;;;6.40;99.90;;;;;;5053141;28;20243;-72
2023/01/09 06:30:25;;;;;;;1.50;0.87;;;6.40;99.90;;;;;;5052717;28;20223;-72
2023/01/09 06:32:51;;;;;;;5.17;1.23;;;6.40;99.90;;;;;;5033332;28;20315;-72
2023/01/09 06:35:21;;;;;;;1.20;1.10;;;6.30;99.90;;;;;;5037992;28;20261;-72
2023/01/09 06:37:49;;;;;;;4.30;1.13;;;6.30;99.90;;;;;;5036696;28;20224;-72
2023/01/09 06:40:16;;;;;;;1.30;1.20;;;6.30;99.90;;;;;;5032139;28;20481;-72
2023/01/09 06:42:46;;;;;;;1.67;1.30;;;6.30;99.90;;;;;;5031104;28;20473;-72
2023/01/09 06:45:13;;;;;;;3.83;1.10;;;6.40;99.90;;;;;;5056974;28;20810;-72
2023/01/09 06:47:39;;;;;;;1.93;1.33;;;6.40;99.90;;;;;;5049750;28;20478;-71
2023/01/09 06:50:05;;;;;;;1.47;1.00;;;6.40;99.90;;;;;;5047254;28;20542;-71
2023/01/09 06:52:31;;;;;;;6.10;1.17;;;6.40;99.90;;;;;;5063900;28;20457;-72
2023/01/09 06:54:57;;;;;;;1.07;0.67;;;6.40;99.90;;;;;;5048420;28;21001;-72
2023/01/09 06:57:22;;;;;;;6.33;1.10;;;6.40;99.90;;;;;;5065791;28;20242;-72
2023/01/09 06:59:48;;;;;;;2.17;1.00;;;6.40;99.90;;;;;;5075865;28;20227;-72
2023/01/09 07:02:17;;;;;;;4.83;0.90;;;6.50;99.90;;;;;;5037880;28;20219;-72
2023/01/09 07:04:43;;;;;;;1.80;0.70;;;6.40;99.90;;;;;;5059430;28;20573;-72
2023/01/09 07:07:08;;;;;;;1.60;0.70;;;6.50;99.90;;;;;;5052240;28;20464;-71
2023/01/09 07:09:34;;;;;;;1.57;0.60;;;6.40;99.90;;;;;;5031941;28;20232;-72
2023/01/09 07:11:59;;;;;;;1.03;0.80;;;6.40;99.90;;;;;;5068425;28;20217;-72
2023/01/09 07:14:25;;;;;;;1.00;0.97;;;6.40;99.90;;;;;;5052175;28;20220;-72
2023/01/09 07:16:51;;;;;;;0.80;0.80;;;6.40;99.90;;;;;;5038421;28;20226;-72
2023/01/09 07:19:16;;;;;;;1.87;0.90;;;6.40;99.90;;;;;;5058601;28;20223;-72
2023/01/09 07:21:42;;;;;;;3.50;0.90;;;6.40;99.90;;;;;;5041721;28;20212;-72
2023/01/09 07:24:08;;;;;;;1.23;0.60;;;6.40;99.90;;;;;;5047528;28;20691;-72
2023/01/09 07:26:33;;;;;;;1.13;0.87;;;6.40;99.90;;;;;;5042979;28;20226;-72
2023/01/09 07:28:59;;;;;;;3.07;1.00;;;6.40;99.90;;;;;;5042680;28;20255;-71
2023/01/09 07:31:24;;;;;;;3.83;0.70;;;6.40;99.90;;;;;;5052290;28;20238;-72
2023/01/09 07:33:50;;;;;;;2.30;0.67;;;6.50;99.90;;;;;;5061381;28;20227;-72
2023/01/09 07:36:16;;;;;;;1.80;0.80;;;6.40;99.90;;;;;;5046640;28;20220;-72
2023/01/09 07:38:41;;;;;;;0.80;0.63;;;6.40;99.90;;;;;;5058914;28;20228;-72
2023/01/09 07:41:07;;;;;;;3.80;0.90;;;6.40;99.90;;;;;;5033972;28;20223;-72
2023/01/09 07:43:33;;;;;;;1.90;0.80;;;6.40;99.90;;;;;;5045135;28;20231;-72
2023/01/09 07:45:58;;;;;;;1.17;0.47;;;6.50;99.90;;;;;;5074518;28;20226;-71
2023/01/09 07:48:24;;;;;;;5.70;1.00;;;6.50;99.90;;;;;;5054429;28;20230;-72
2023/01/09 07:50:50;;;;;;;1.47;0.87;;;6.60;99.90;;;;;;5042343;28;20774;-72
2023/01/09 07:53:15;;;;;;;0.60;0.60;;;6.60;99.90;;;;;;5059004;28;20618;-72
2023/01/09 07:55:42;;;;;;;1.33;0.73;;;6.60;99.90;;;;;;5059761;28;20737;-72
2023/01/09 07:58:07;;;;;;;0.67;0.57;;;6.60;99.90;;;;;;5056556;28;20259;-72
2023/01/09 08:00:33;;;;;;;1.00;0.70;;;6.60;99.90;;;;;;5064043;28;20964;-72
2023/01/09 08:02:59;;;;;;;3.47;0.70;;;6.60;99.90;;;;;;5033943;28;20687;-72
2023/01/09 08:05:24;;;;;;;2.10;0.70;;;6.70;99.90;;;;;;5046984;28;20216;-72
2023/01/09 08:07:50;;;;;;;0.60;0.60;;;6.70;99.90;;;;;;5055929;28;20249;-73
2023/01/09 08:10:18;;;;;;;0.80;0.80;;;6.70;99.90;;;;;;5062425;28;20284;-72
2023/01/09 08:12:47;;;;;;;0.60;0.60;;;6.70;99.90;;;;;;5070166;28;20314;-72
2023/01/09 08:15:14;;;;;;;1.83;0.77;;;6.70;99.90;;;;;;5055722;28;20473;-72
2023/01/09 08:17:41;;;;;;;0.90;0.70;;;6.60;99.90;;;;;;5044979;28;20458;-72
2023/01/09 08:20:09;;;;;;;1.50;0.80;;;6.80;99.90;;;;;;5042189;28;20468;-72
2023/01/09 08:22:35;;;;;;;1.07;0.63;;;6.80;99.90;;;;;;5071302;28;20479;-72
2023/01/09 08:25:01;;;;;;;1.20;0.63;;;6.80;99.90;;;;;;5088513;28;20457;-72
2023/01/09 08:27:26;;;;;;;5.23;0.60;;;6.80;99.90;;;;;;5060920;28;20259;-72
2023/01/09 08:29:52;;;;;;;1.90;0.57;;;6.80;99.90;;;;;;5053544;28;20266;-72
2023/01/09 08:32:18;;;;;;;0.90;0.80;;;6.90;99.90;;;;;;5058438;28;20215;-72
2023/01/09 08:34:43;;;;;;;2.40;1.00;;;6.90;99.90;;;;;;5053170;28;20224;-72
2023/01/09 08:37:09;;;;;;;3.10;1.20;;;7.00;99.90;;;;;;5053738;28;20220;-72
2023/01/09 08:39:34;;;;;;;0.80;0.53;;;6.90;99.90;;;;;;5065675;28;20593;-72
2023/01/09 08:47:32;;;;;;;0.80;0.60;;;6.90;99.90;;;;;;5043299;28;20438;-72
2023/01/09 08:49:59;;;;;;;0.60;0.60;;;6.90;99.90;;;;;;5062074;28;20465;-72
2023/01/09 08:52:24;;;;;;;0.60;0.60;;;6.90;99.90;;;;;;5064892;28;20450;-72
2023/01/09 08:54:50;;;;;;;1.13;0.60;;;6.90;99.90;;;;;;5039699;28;20469;-72
2023/01/09 08:57:15;;;;;;;1.53;0.83;;;6.90;99.90;;;;;;5052545;28;20246;-72
2023/01/09 08:59:41;;;;;;;1.27;0.70;;;7.00;99.90;;;;;;5055659;28;20643;-71
2023/01/09 09:02:08;;;;;;;0.50;0.50;;;7.00;99.90;;;;;;5055516;28;20707;-71
2023/01/09 09:04:34;;;;;;;0.50;0.50;;;7.10;99.90;;;;;;5049945;28;20326;-72
2023/01/09 09:06:59;;;;;;;1.83;0.90;;;7.10;99.90;;;;;;5049028;28;20596;-71
2023/01/09 09:09:25;;;;;;;0.70;0.70;;;7.10;99.90;;;;;;5054535;28;20235;-71
2023/01/09 09:11:51;;;;;;;3.13;1.27;;;7.10;99.90;;;;;;5033121;28;20228;-72
2023/01/09 09:17:01;;;;;;;0.67;0.60;;;7.10;99.90;;;;;;5054824;28;20203;-71
2023/01/09 09:19:26;;;;;;;1.20;0.60;;;7.10;99.90;;;;;;5025720;28;20458;-72
2023/01/09 09:21:52;;;;;;;0.73;0.50;;;7.10;99.90;;;;;;5046230;28;20767;-72
2023/01/09 09:24:18;;;;;;;2.50;0.73;;;7.10;99.90;;;;;;5046733;28;20322;-72
2023/01/09 09:26:43;;;;;;;2.50;0.83;;;7.10;99.90;;;;;;5061956;28;20228;-73
2023/01/09 09:29:09;;;;;;;3.40;0.87;;;7.10;99.90;;;;;;5055190;28;20214;-72
2023/01/09 09:31:37;;;;;;;1.37;1.20;;;7.10;99.90;;;;;;5049376;28;20621;-72
2023/01/09 09:34:04;;;;;;;0.63;0.63;;;7.10;99.90;;;;;;5048473;28;20251;-71
2023/01/09 09:36:29;;;;;;;1.67;0.87;;;7.10;99.90;;;;;;5056098;28;20530;-71
2023/01/09 09:38:55;;;;;;;1.93;0.70;;;7.10;99.90;;;;;;5056899;28;20493;-71
2023/01/09 09:44:42;;;;;;;1.73;0.90;;;7.10;99.90;;;;;;5048512;28;20329;-72
2023/01/09 09:47:42;;;;;;;1.20;0.70;;;7.10;99.90;;;;;;5055411;28;20438;-72
2023/01/09 09:50:26;;;;;;;2.10;0.60;;;7.20;99.90;;;;;;5048652;28;20464;-72
2023/01/09 09:53:17;;;;;;;0.70;0.70;;;7.20;99.90;;;;;;5055135;28;20446;-71
2023/01/09 09:55:45;;;;;;;2.10;0.57;;;7.20;99.90;;;;;;5048895;28;20450;-72
2023/01/09 09:58:35;;;;;;;1.13;0.80;;;7.20;99.90;;;;;;5050869;28;20454;-72
2023/01/09 10:01:02;;;;;;;1.13;0.60;;;7.20;99.90;;;;;;5064359;28;20492;-72
2023/01/09 10:03:42;;;;;;;0.57;0.40;;;7.20;99.90;;;;;;5048321;28;20462;-72
2023/01/09 10:06:32;;;;;;;2.97;0.83;;;7.20;99.90;;;;;;5044775;28;20483;-72
2023/01/09 10:09:16;;;;;;;2.50;0.67;;;7.20;99.90;;;;;;5037848;28;20459;-72
2023/01/09 10:11:51;;;;;;;2.37;0.80;;;7.20;99.90;;;;;;5032206;28;20455;-72
2023/01/09 10:14:17;;;;;;;1.50;0.73;;;7.20;99.90;;;;;;5049506;28;20457;-72
2023/01/09 10:17:17;;;;;;;4.63;1.33;;;7.30;99.90;;;;;;5076541;28;20451;-72
2023/01/09 10:19:48;;;;;;;1.43;0.90;;;7.30;99.90;;;;;;5056598;28;20460;-72
2023/01/09 10:22:39;;;;;;;3.47;0.90;;;7.30;99.90;;;;;;5077193;28;20446;-72
2023/01/09 10:25:19;;;;;;;5.80;1.63;;;7.30;99.90;;;;;;5047817;28;20445;-72
2023/01/09 10:27:57;;;;;;;2.43;1.47;;;7.30;99.90;;;;;;5060285;28;20491;-72
2023/01/09 10:30:33;;;;;;;1.60;1.23;;;7.30;99.90;;;;;;5084864;28;20454;-72
2023/01/09 10:33:11;;;;;;;3.70;0.93;;;7.30;99.90;;;;;;5087114;28;20449;-71
2023/01/09 10:35:49;;;;;;;1.27;1.03;;;7.30;99.90;;;;;;5069111;28;20461;-72
2023/01/09 10:38:22;;;;;;;1.50;1.10;;;7.30;99.90;;;;;;5074149;28;20463;-72
2023/01/09 10:40:58;;;;;;;1.20;1.10;;;7.30;99.90;;;;;;5067875;28;20474;-72
2023/01/09 10:43:50;;;;;;;2.27;1.17;;;7.30;99.90;;;;;;5047797;28;20520;-72
2023/01/09 10:46:28;;;;;;;2.37;1.10;;;7.30;99.90;;;;;;5045658;28;20983;-72
2023/01/09 10:48:59;;;;;;;1.10;1.00;;;7.30;99.90;;;;;;5068359;28;20483;-72
2023/01/09 10:51:36;;;;;;;5.43;1.40;;;7.40;99.90;;;;;;5072778;28;20537;-72
2023/01/09 10:54:04;;;;;;;2.47;0.90;;;7.40;99.90;;;;;;5064139;28;20809;-71
2023/01/09 10:56:38;;;;;;;3.07;1.60;;;7.40;99.90;;;;;;5061340;28;20471;-72
2023/01/09 10:59:04;;;;;;;1.60;1.03;;;7.30;99.90;;;;;;5042819;28;20473;-72
2023/01/09 11:01:38;;;;;;;1.67;1.00;;;7.30;99.90;;;;;;5058224;28;20511;-72
2023/01/09 11:04:18;;;;;;;2.00;1.30;;;7.30;99.90;;;;;;5057381;28;20465;-72
2023/01/09 11:06:49;;;;;;;1.13;1.00;;;7.40;99.90;;;;;;5069219;28;20460;-72
2023/01/09 11:09:15;;;;;;;1.97;0.90;;;7.40;99.90;;;;;;5047198;28;20492;-72
2023/01/09 11:11:41;;;;;;;5.80;1.27;;;7.40;99.90;;;;;;5056826;28;20469;-72
2023/01/09 11:14:17;;;;;;;1.70;1.00;;;7.40;99.90;;;;;;5071360;28;20851;-72
2023/01/09 11:16:54;;;;;;;1.00;0.87;;;7.40;99.90;;;;;;5035946;28;20463;-72
2023/01/09 11:19:20;;;;;;;2.53;1.10;;;7.40;99.90;;;;;;5067046;28;20470;-72
2023/01/09 11:21:46;;;;;;;4.07;1.37;;;7.40;99.90;;;;;;5035064;28;20997;-72
2023/01/09 11:24:18;;;;;;;7.33;1.03;;;7.40;99.90;;;;;;5055237;28;20458;-72
2023/01/09 11:26:45;;;;;;;1.10;1.00;;;7.40;99.90;;;;;;5059864;28;20491;-72
2023/01/09 11:29:13;;;;;;;1.30;1.20;;;7.50;99.90;;;;;;5044294;28;20446;-72
2023/01/09 11:31:40;;;;;;;1.40;1.30;;;7.50;99.90;;;;;;5050807;28;20473;-72
2023/01/09 11:34:16;;;;;;;1.80;1.30;;;7.50;99.90;;;;;;5058435;28;20449;-72
2023/01/09 11:36:42;;;;;;;1.73;1.00;;;7.50;99.90;;;;;;5036783;28;20452;-72
2023/01/09 11:39:24;;;;;;;2.73;1.40;;;7.50;99.90;;;;;;5058147;28;20546;-73
2023/01/09 11:41:54;;;;;;;4.47;1.17;;;7.50;99.90;;;;;;5034453;28;20220;-72
2023/01/09 11:44:20;;;;;;;3.03;1.20;;;7.50;99.90;;;;;;5056077;28;20958;-72
2023/01/09 11:46:46;;;;;;;2.17;1.03;;;7.50;99.90;;;;;;5057050;28;20446;-72
2023/01/09 11:49:16;;;;;;;3.50;1.70;;;7.60;99.90;;;;;;5071974;28;20817;-72
2023/01/09 11:51:43;;;;;;;1.73;0.97;;;7.60;99.90;;;;;;5065962;28;20737;-72
2023/01/09 11:54:14;;;;;;;0.97;0.90;;;7.60;99.90;;;;;;5072303;28;20447;-72
2023/01/09 11:56:40;;;;;;;1.40;1.30;;;7.60;99.90;;;;;;5057504;28;20458;-72
2023/01/09 11:59:12;;;;;;;1.23;1.00;;;7.60;99.90;;;;;;5040692;28;20478;-72
2023/01/09 12:01:46;;;;;;;4.20;0.90;;;7.60;99.90;;;;;;5054935;28;20503;-72
2023/01/09 12:04:39;;;;;;;5.50;0.87;;;7.60;99.90;;;;;;5047101;28;20489;-72
2023/01/09 12:07:31;;;;;;;4.23;0.90;;;7.60;99.90;;;;;;5038547;28;20549;-72
2023/01/09 12:10:06;;;;;;;0.80;0.80;;;7.60;99.90;;;;;;5047357;28;20471;-71
2023/01/09 12:13:01;;;;;;;1.13;1.10;;;7.60;99.90;;;;;;5051299;28;20468;-72
2023/01/09 12:15:50;;;;;;;1.00;0.90;;;7.60;99.90;;;;;;5068445;28;20461;-72
2023/01/09 12:18:37;;;;;;;2.60;1.00;;;7.60;99.90;;;;;;4998714;28;20543;-72
2023/01/09 12:21:24;;;;;;;1.17;0.90;;;7.60;99.90;;;;;;5033878;28;20463;-73
2023/01/09 12:24:17;;;;;;;2.50;0.90;;;7.60;99.90;;;;;;5047880;28;20458;-72
2023/01/09 12:26:54;;;;;;;0.97;0.83;;;7.60;99.90;;;;;;5064202;28;20458;-72
2023/01/09 12:29:38;;;;;;;0.70;0.70;;;7.60;99.90;;;;;;5039994;28;20986;-72
2023/01/09 12:32:12;;;;;;;4.80;1.30;;;7.60;99.90;;;;;;5033989;28;20554;-72
2023/01/09 12:35:03;;;;;;;0.60;0.60;;;7.60;99.90;;;;;;5042344;28;20482;-72
2023/01/09 12:37:48;;;;;;;0.63;0.60;;;7.70;99.90;;;;;;5047062;28;20489;-72
2023/01/09 12:40:34;;;;;;;0.60;0.50;;;7.60;99.90;;;;;;5031233;28;20449;-72
2023/01/09 12:43:17;;;;;;;1.60;0.73;;;7.60;99.90;;;;;;5060793;28;20454;-71
2023/01/09 12:46:16;;;;;;;0.60;0.60;;;7.60;99.90;;;;;;5081034;28;20459;-72
2023/01/09 12:49:03;;;;;;;0.80;0.67;;;7.60;99.90;;;;;;5018840;28;20469;-71
2023/01/09 12:51:55;;;;;;;0.40;0.40;;;7.60;99.90;;;;;;5066226;28;20458;-72
2023/01/09 12:54:25;;;;;;;2.83;2.20;;;7.60;99.90;;;;;;5043864;28;20447;-72
2023/01/09 12:57:02;;;;;;;8.27;4.87;;;7.60;99.90;;;;;;5050141;28;20501;-72
2023/01/09 12:59:42;;;;;;;4.47;3.77;;;7.70;99.90;;;;;;5035744;28;20554;-72
2023/01/09 13:02:15;;;;;;;3.33;2.33;;;7.70;99.90;;;;;;5040645;28;20529;-72
2023/01/09 13:05:00;;;;;;;3.70;0.87;;;7.70;99.90;;;;;;5049400;28;20457;-71
2023/01/09 13:07:49;;;;;;;0.60;0.50;;;7.70;99.90;;;;;;5028890;28;20474;-72
2023/01/09 13:10:26;;;;;;;1.17;0.50;;;7.70;99.90;;;;;;5042014;28;20451;-72
2023/01/09 13:12:53;;;;;;;2.10;0.90;;;7.70;99.90;;;;;;5058529;28;20479;-72
2023/01/09 13:15:24;;;;;;;3.00;1.57;;;7.70;99.90;;;;;;5083787;28;20445;-72
2023/01/09 13:17:54;;;;;;;30.90;16.57;;;7.70;99.90;;;;;;5066102;28;20579;-72
2023/01/09 13:20:27;;;;;;;28.60;17.40;;;7.80;99.90;;;;;;5059314;28;20453;-72
2023/01/09 13:22:54;;;;;;;50.60;27.67;;;7.70;99.90;;;;;;5039849;28;20458;-72
2023/01/09 13:25:28;;;;;;;39.60;19.80;;;7.80;99.90;;;;;;5021705;28;20448;-71
2023/01/09 13:28:04;;;;;;;23.80;10.57;;;7.70;99.90;;;;;;5047542;28;20735;-72
2023/01/09 13:31:09;;;;;;;14.00;9.13;;;7.70;99.90;;;;;;5050362;28;20465;-72